UMMS 070100Z 32003MPS 9999 BKN026 M02/M03 Q1031 NOSIG
QNH:(hPa/inHg/mmHg)1031 / 30.45 / 773
QFE:(hPa/inHg/mmHg)1006 / 29.70 / 754
Temperature-2
Dew Point-3
Visibility> 10000
Weather
Cloud CoverBKN (2600);
Transition Altitude6000 ft.
Transition LevelFL70
SQUAWK